Loisir ou Compétition : Rejoignez un Club de la Fédération

Résultats

SAMSE NATIONAL TOUR U19 / U21 / SENIOR

LES SAISIES

SPR Dames

Jury de Compétition

Délégué Technique :
CHEVALIER CHRISTOPHE (DA)
D.T. Adjoint :
MAGAND GUY (DA)
Dir. Epreuve :
 
Chef Pas de Tir :
 

Caractéristiques de la Piste

Piste :
 
Distance :
6,0 km
Point Haut :
 
Point Bas :
 
Montée Tot. :
 
Montée Max. :
 
Homologation :
 

Pénalité Appliquée :
14.4700
Coefficient :
 

Catégorie :
U19->SEN
Style :
 
Type de Tir :
[C-D]
Clt Dos Clt/Cat Code An Nom Prénom Com Club Temps Pena Tps Tot Ecart Points
Classés
1 14 1/U21 FFS2655073 1999 CHAUVEAU SOPHIE MB SC GD BORNAN 18:57.0 0-1- - 18:57.0 00:00.0 14.47
2 27 1/SEN FFS2650540 1998 GUIGONNAT GILONNE MB VILLARD/BOEG 19:05.5 1-0- - 19:05.5 00:08.5 20.45
3 2 2/SEN FFS2627669 1997 BEGUE MYRTILLE PE CS FT ROMEU 19:13.5 2-0- - 19:13.5 00:16.5 26.08
4 10 3/SEN FFS2654471 1998 JEANMONNOT LOU MJ OLYMP MT DOR 19:31.8 0-2- - 19:31.8 00:34.8 38.96
5 5 2/U21 FFS2654332 2000 BARTHELEMY THAIS DA SNO 19:41.0 0-1- - 19:41.0 00:44.0 45.43
6 43 1/U19 FFS2655903 2002 BERTRAND FANY SA CS MERIBEL 19:45.7 0-1- - 19:45.7 00:48.7 48.74
7 86 2/U19 FFS2670359 2002 BENED CHLOE MB CHABLAIS NOR 19:46.2 0-1- - 19:46.2 00:49.2 49.09
8 3 4/SEN FFS2632378 1997 LAFFONT DEBORAH DA VERCORS SKF 19:58.2 1-0- - 19:58.2 01:01.2 57.53
9 11 3/U21 FFS2659977 2000 BOTET PAULA MV LA BRESSAUDE 20:32.1 3-1- - 20:32.1 01:35.1 81.38
10 28 4/U21 FFS2660000 1999 REMY CHLOE MV LA BRESSAUDE 20:32.9 0-1- - 20:32.9 01:35.9 81.95
11 64 3/U19 FFS2652071 2002 RICHARD JEANNE MB LES GETS S.C 20:35.1 2-1- - 20:35.1 01:38.1 83.49
12 82 4/U19 FFS2671450 2002 SYLVESTRE BARON CLAIRE MB SCNP ROCHOIS 20:35.3 0-0- - 20:35.3 01:38.3 83.63
13 6 5/U21 FFS2660846 2000 BENED CAMILLE MB CHABLAIS NOR 20:37.3 3-1- - 20:37.3 01:40.3 85.04
14 18 6/U21 FFS2651004 2000 CHEVAT LOU ANNE DA US AUTRANNAI 20:38.9 1-3- - 20:38.9 01:41.9 86.17
15 46 5/U19 FFS2657180 2002 SIBERCHICOT LISA MJ PREMANON SC 20:42.2 1-1- - 20:42.2 01:45.2 88.49
16 23 7/U21 FFS2647855 2000 PASTEUR COLINE DA SA MEAUDRAIS 20:43.7 0-2- - 20:43.7 01:46.7 89.54
17 17 8/U21 FFS2654796 2000 BOUCAUD LAURA DA US AUTRANNAI 20:44.7 2-1- - 20:44.7 01:47.7 90.25
18 16 6/U19 FFS2670554 2001 COUPE CAMILLE SA CS LA FECLAZ 20:55.6 2-2- - 20:55.6 01:58.6 97.92
19 85 7/U19 FFS2660755 2002 CLOETENS MAYA DA GUC GRENOBLE 20:57.1 1-2- - 20:57.1 02:00.1 98.97
20 7 5/SEN FFS2654456 1998 CHALLAMEL MARINE DA SN CHARTROUS 21:08.4 1-2- - 21:08.4 02:11.4 106.92
21 41 8/U19 FFS2677081 2002 JEANNIER LEONIE MJ SC VERRIERES 21:10.3 3-2- - 21:10.3 02:13.3 108.26
22 8 9/U19 FFS2653734 2001 CHICHIGNOUD MARGOT DA US AUTRANNAI 21:13.4 2-1- - 21:13.4 02:16.4 110.44
23 22 9/U21 FFS2628683 1999 BOUVARD EVE SA COURCHEVEL 21:19.5 2-2- - 21:19.5 02:22.5 114.73
24 21 10/U19 FFS2661475 2001 REMONNAY NOEMIE MJ OYE-PALLET 21:24.5 1-3- - 21:24.5 02:27.5 118.25
25 83 11/U19 FFS2665303 2002 MICHELON OCEANE SA BAUGES S.N 21:25.2 4-3- - 21:25.2 02:28.2 118.74
26 25 10/U21 FFS2633368 2000 BRAISAZ LEONIE SA CS SAISIES 21:27.0 0-2- - 21:27.0 02:30.0 120.01
27 59 12/U19 FFS2670903 2002 CROS JEANNE MB SC GD BORNAN 21:31.1 1-1- - 21:31.1 02:34.1 122.90
28 78 13/U19 FFS2669529 2002 MOUGIN THEA MJ SC GRANDVAUX 21:32.7 0-2- - 21:32.7 02:35.7 124.02
29 49 14/U19 FFS2654873 2002 GROSSET BOURBANGE LINA MB CS MEGEVE 21:33.4 2-1- - 21:33.4 02:36.4 124.51
30 9 15/U19 FFS2665618 2001 CAMPION LEANA PE CS FT ROMEU 21:37.7 2-1- - 21:37.7 02:40.7 127.54
31 19 11/U21 FFS2650088 2000 PAULY AGNES DA SNB CHAMROUS 21:41.1 1-2- - 21:41.1 02:44.1 129.93
32 20 12/U21 FFS2633878 1999 RIVAIL MELINE SA SC MENUIRES 21:45.2 2-1- - 21:45.2 02:48.2 132.82
33 58 16/U19 FFS2671448 2002 PATUREL DORINE MB SCNP ROCHOIS 21:49.0 0-4- - 21:49.0 02:52.0 135.49
34 15 13/U21 FFS2665257 2000 JEANNIER LOUISE MJ SC VERRIERES 21:54.7 3-2- - 21:54.7 02:57.7 139.50
35 81 17/U19 FFS2660687 2002 GRUNEWALD ELEONORE DA VERCORS SKF 21:57.1 1-2- - 21:57.1 03:00.1 141.19
36 29 14/U21 FFS2646599 1999 BEPOIX OCEANE MJ SMBM/MORBIER 22:00.8 1-3- - 22:00.8 03:03.8 143.79
37 48 18/U19 FFS2661517 2002 LAUTH EVA DA VERCORS SKF 22:04.1 2-0- - 22:04.1 03:07.1 146.11
38 12 15/U21 FFS2669147 2000 FAIVRE MARYLOU MJ SC GRANDVAUX 22:08.7 1-1- - 22:08.7 03:11.7 149.35
39 24 16/U21 FFS2654834 1999 MERCIER BOSSENY MARIE SA CS LA FECLAZ 22:22.4 0-2- - 22:22.4 03:25.4 158.99
40 4 17/U21 FFS2666200 2000 GRANDCLEMENT FLORINE MJ PREMANON SC 22:32.6 0-0- - 22:32.6 03:35.6 166.17
41 71 19/U19 FFS2664314 2002 BARON FIONA MJ VAL MORTEAU 22:38.2 0-3- - 22:38.2 03:41.2 170.11
42 75 20/U19 FFS2682651 2002 MORRAL FERANDIS MARIONA PE CS FT ROMEU 22:41.0 2-2- - 22:41.0 03:44.0 172.08
43 37 21/U19 FFS2665498 2002 ROCHE LUDMILLA AP AS EDELWEISS 22:52.2 0-3- - 22:52.2 03:55.2 179.96
44 67 22/U19 FFS2676609 2002 CAT LENA MJ SC MONT NOIR 22:56.6 1-4- - 22:56.6 03:59.6 183.05
45 13 23/U19 FFS2670201 2001 JEANMONNOT PRUNE MJ OLYMP MT DOR 23:11.4 0-3- - 23:11.4 04:14.4 193.47
46 54 24/U19 FFS2675560 2002 CHOUARD JULIETTE MJ SC GRANDVAUX 23:30.9 3-2- - 23:30.9 04:33.9 207.19
47 1 18/U21 FFS2660141 2000 PERRILLAT MONET SIDONIE MB SC GD BORNAN 23:55.4 2-3- - 23:55.4 04:58.4 224.43
48 60 25/U19 FFS2666812 2002 TAFFIN NINA SA CS MERIBEL 23:57.6 1-2- - 23:57.6 05:00.6 225.97
49 33 26/U19 FFS2661232 2002 JEANGEORGES ANAIS MV BASS/RUPT SN 24:05.9 2-2- - 24:05.9 05:08.9 231.81
50 30 27/U19 FFS2666106 2002 VIGNEAU LUCIE SA SC ARECHES 24:32.3 0-2- - 24:32.3 05:35.3 250.39
51 76 28/U19 FFS2654837 2002 CHARVOLIN CANDICE LY SC BRENOD 24:47.1 3-3- - 24:47.1 05:50.1 260.80
Non partants
26 FFS2665256 2001 CRETIN MAITENAZ JULIE MJ SMBM/MORBIER
52 FFS2655269 2002 GELDHOF LAURANNE DA SN CHARTROUS
73 FFS2671188 2002 PELLEGRINI AUGUSTINE MJ OYE-PALLET
84 FFS2680651 2002 SERRETTE LISA MJ PREMANON SC